sensor_id;sensor_type;location;lat;lon;timestamp;P1;durP1;ratioP1;P2;durP2;ratioP2
72674;SDS011;60752;53.962;9.614;2022-08-11T00:01:05;7.45;;;3.00;;
72674;SDS011;60752;53.962;9.614;2022-08-11T00:06:08;6.45;;;2.58;;
72674;SDS011;60752;53.962;9.614;2022-08-11T00:11:11;6.03;;;2.77;;
72674;SDS011;60752;53.962;9.614;2022-08-11T00:16:14;6.87;;;2.97;;
72674;SDS011;60752;53.962;9.614;2022-08-11T00:21:17;6.35;;;3.30;;
72674;SDS011;60752;53.962;9.614;2022-08-11T00:26:21;7.55;;;3.63;;
72674;SDS011;60752;53.962;9.614;2022-08-11T00:31:23;8.33;;;4.23;;
72674;SDS011;60752;53.962;9.614;2022-08-11T00:36:27;9.70;;;3.55;;
72674;SDS011;60752;53.962;9.614;2022-08-11T00:41:39;7.22;;;4.38;;
72674;SDS011;60752;53.962;9.614;2022-08-11T00:46:45;7.63;;;3.93;;
72674;SDS011;60752;53.962;9.614;2022-08-11T00:51:59;8.43;;;4.13;;
72674;SDS011;60752;53.962;9.614;2022-08-11T00:57:21;8.82;;;4.90;;
72674;SDS011;60752;53.962;9.614;2022-08-11T01:02:40;9.47;;;4.43;;
72674;SDS011;60752;53.962;9.614;2022-08-11T01:13:34;10.25;;;5.00;;
72674;SDS011;60752;53.962;9.614;2022-08-11T01:19:04;9.07;;;4.50;;
72674;SDS011;60752;53.962;9.614;2022-08-11T01:30:19;9.27;;;4.60;;
72674;SDS011;60752;53.962;9.614;2022-08-11T01:41:41;9.17;;;4.70;;
72674;SDS011;60752;53.962;9.614;2022-08-11T01:47:09;8.23;;;4.88;;
72674;SDS011;60752;53.962;9.614;2022-08-11T01:52:19;10.15;;;4.93;;
72674;SDS011;60752;53.962;9.614;2022-08-11T01:57:27;8.57;;;5.00;;
72674;SDS011;60752;53.962;9.614;2022-08-11T02:02:38;10.67;;;5.50;;
72674;SDS011;60752;53.962;9.614;2022-08-11T02:07:55;8.80;;;4.82;;
72674;SDS011;60752;53.962;9.614;2022-08-11T02:13:05;10.15;;;5.00;;
72674;SDS011;60752;53.962;9.614;2022-08-11T02:18:12;7.83;;;4.70;;
72674;SDS011;60752;53.962;9.614;2022-08-11T02:23:24;11.45;;;5.80;;
72674;SDS011;60752;53.962;9.614;2022-08-11T02:28:29;9.65;;;4.60;;
72674;SDS011;60752;53.962;9.614;2022-08-11T02:33:37;9.83;;;4.97;;
72674;SDS011;60752;53.962;9.614;2022-08-11T02:38:45;13.23;;;5.10;;
72674;SDS011;60752;53.962;9.614;2022-08-11T02:43:51;10.77;;;4.85;;
72674;SDS011;60752;53.962;9.614;2022-08-11T02:49:10;8.93;;;4.77;;
72674;SDS011;60752;53.962;9.614;2022-08-11T02:54:21;8.33;;;5.00;;
72674;SDS011;60752;53.962;9.614;2022-08-11T02:59:27;7.97;;;4.22;;
72674;SDS011;60752;53.962;9.614;2022-08-11T03:04:36;9.77;;;4.82;;
72674;SDS011;60752;53.962;9.614;2022-08-11T03:09:48;7.93;;;4.67;;
72674;SDS011;60752;53.962;9.614;2022-08-11T03:14:54;10.07;;;4.65;;
72674;SDS011;60752;53.962;9.614;2022-08-11T03:20:05;8.75;;;4.60;;
72674;SDS011;60752;53.962;9.614;2022-08-11T03:25:17;10.13;;;4.57;;
72674;SDS011;60752;53.962;9.614;2022-08-11T03:30:31;8.98;;;4.75;;
72674;SDS011;60752;53.962;9.614;2022-08-11T03:35:39;9.65;;;4.47;;
72674;SDS011;60752;53.962;9.614;2022-08-11T03:40:56;10.87;;;4.47;;
72674;SDS011;60752;53.962;9.614;2022-08-11T03:46:11;9.23;;;4.10;;
72674;SDS011;60752;53.962;9.614;2022-08-11T03:51:21;7.50;;;3.78;;
72674;SDS011;60752;53.962;9.614;2022-08-11T04:02:11;8.63;;;4.10;;
72674;SDS011;60752;53.962;9.614;2022-08-11T04:13:39;9.10;;;4.05;;
72674;SDS011;60752;53.962;9.614;2022-08-11T04:24:45;13.02;;;4.30;;
72674;SDS011;60752;53.962;9.614;2022-08-11T04:30:06;9.98;;;4.38;;
72674;SDS011;60752;53.962;9.614;2022-08-11T04:35:14;10.27;;;4.43;;
72674;SDS011;60752;53.962;9.614;2022-08-11T04:51:44;5.95;;;3.50;;
72674;SDS011;60752;53.962;9.614;2022-08-11T04:57:01;6.80;;;3.80;;
72674;SDS011;60752;53.962;9.614;2022-08-11T05:02:16;7.10;;;3.60;;
72674;SDS011;60752;53.962;9.614;2022-08-11T05:13:21;5.40;;;2.70;;
72674;SDS011;60752;53.962;9.614;2022-08-11T05:18:26;7.50;;;2.50;;
72674;SDS011;60752;53.962;9.614;2022-08-11T05:23:28;8.18;;;2.53;;
72674;SDS011;60752;53.962;9.614;2022-08-11T05:28:32;5.20;;;2.33;;
72674;SDS011;60752;53.962;9.614;2022-08-11T05:33:35;6.10;;;2.13;;
72674;SDS011;60752;53.962;9.614;2022-08-11T05:38:41;7.97;;;2.33;;
72674;SDS011;60752;53.962;9.614;2022-08-11T05:43:53;5.50;;;2.53;;
72674;SDS011;60752;53.962;9.614;2022-08-11T05:48:57;5.97;;;2.40;;
72674;SDS011;60752;53.962;9.614;2022-08-11T05:53:58;7.47;;;2.67;;
72674;SDS011;60752;53.962;9.614;2022-08-11T05:59:01;8.00;;;3.25;;
72674;SDS011;60752;53.962;9.614;2022-08-11T06:04:05;6.30;;;2.30;;
72674;SDS011;60752;53.962;9.614;2022-08-11T06:09:07;5.17;;;2.30;;
72674;SDS011;60752;53.962;9.614;2022-08-11T06:14:10;5.82;;;2.13;;
72674;SDS011;60752;53.962;9.614;2022-08-11T06:19:12;5.68;;;2.22;;
72674;SDS011;60752;53.962;9.614;2022-08-11T06:24:13;4.50;;;1.70;;
72674;SDS011;60752;53.962;9.614;2022-08-11T06:29:16;8.23;;;2.15;;
72674;SDS011;60752;53.962;9.614;2022-08-11T06:34:22;6.45;;;2.00;;
72674;SDS011;60752;53.962;9.614;2022-08-11T06:39:32;7.20;;;2.40;;
72674;SDS011;60752;53.962;9.614;2022-08-11T06:44:46;5.70;;;2.30;;
72674;SDS011;60752;53.962;9.614;2022-08-11T06:49:56;7.65;;;2.05;;
72674;SDS011;60752;53.962;9.614;2022-08-11T06:55:00;5.30;;;2.03;;
72674;SDS011;60752;53.962;9.614;2022-08-11T07:00:08;5.78;;;2.20;;
72674;SDS011;60752;53.962;9.614;2022-08-11T07:05:10;6.88;;;2.38;;
72674;SDS011;60752;53.962;9.614;2022-08-11T07:15:43;5.90;;;2.20;;
72674;SDS011;60752;53.962;9.614;2022-08-11T07:20:47;6.35;;;2.20;;
72674;SDS011;60752;53.962;9.614;2022-08-11T07:25:51;4.32;;;1.95;;
72674;SDS011;60752;53.962;9.614;2022-08-11T07:30:54;5.40;;;2.10;;
72674;SDS011;60752;53.962;9.614;2022-08-11T07:35:57;7.60;;;2.20;;
72674;SDS011;60752;53.962;9.614;2022-08-11T07:41:00;3.97;;;1.90;;
72674;SDS011;60752;53.962;9.614;2022-08-11T07:46:02;5.87;;;2.10;;
72674;SDS011;60752;53.962;9.614;2022-08-11T07:51:03;5.40;;;2.55;;
72674;SDS011;60752;53.962;9.614;2022-08-11T07:56:04;7.27;;;2.50;;
72674;SDS011;60752;53.962;9.614;2022-08-11T08:01:07;5.95;;;1.95;;
72674;SDS011;60752;53.962;9.614;2022-08-11T08:06:10;6.75;;;1.95;;
72674;SDS011;60752;53.962;9.614;2022-08-11T08:11:10;5.90;;;2.20;;
72674;SDS011;60752;53.962;9.614;2022-08-11T08:16:12;4.67;;;2.13;;
72674;SDS011;60752;53.962;9.614;2022-08-11T08:21:13;6.00;;;2.00;;
72674;SDS011;60752;53.962;9.614;2022-08-11T08:26:14;5.57;;;2.00;;
72674;SDS011;60752;53.962;9.614;2022-08-11T08:31:16;6.95;;;1.88;;
72674;SDS011;60752;53.962;9.614;2022-08-11T08:36:17;5.63;;;1.77;;
72674;SDS011;60752;53.962;9.614;2022-08-11T08:41:23;5.57;;;2.07;;
72674;SDS011;60752;53.962;9.614;2022-08-11T08:46:29;4.82;;;2.10;;
72674;SDS011;60752;53.962;9.614;2022-08-11T08:51:34;4.20;;;1.95;;
72674;SDS011;60752;53.962;9.614;2022-08-11T08:56:39;5.73;;;1.90;;
72674;SDS011;60752;53.962;9.614;2022-08-11T09:01:45;6.30;;;1.93;;
72674;SDS011;60752;53.962;9.614;2022-08-11T09:06:50;7.30;;;1.80;;
72674;SDS011;60752;53.962;9.614;2022-08-11T09:11:50;3.70;;;1.70;;
72674;SDS011;60752;53.962;9.614;2022-08-11T09:16:53;9.90;;;2.05;;
72674;SDS011;60752;53.962;9.614;2022-08-11T09:21:54;7.97;;;2.00;;
72674;SDS011;60752;53.962;9.614;2022-08-11T09:26:54;4.10;;;1.63;;
72674;SDS011;60752;53.962;9.614;2022-08-11T09:31:56;5.20;;;1.80;;
72674;SDS011;60752;53.962;9.614;2022-08-11T09:36:58;3.65;;;1.58;;
72674;SDS011;60752;53.962;9.614;2022-08-11T09:41:59;3.30;;;1.30;;
72674;SDS011;60752;53.962;9.614;2022-08-11T09:47:02;7.10;;;1.60;;
72674;SDS011;60752;53.962;9.614;2022-08-11T09:52:03;3.90;;;1.70;;
72674;SDS011;60752;53.962;9.614;2022-08-11T09:57:04;5.07;;;1.70;;
72674;SDS011;60752;53.962;9.614;2022-08-11T10:02:06;4.27;;;1.43;;
72674;SDS011;60752;53.962;9.614;2022-08-11T10:07:09;6.40;;;1.80;;
72674;SDS011;60752;53.962;9.614;2022-08-11T10:12:15;4.20;;;1.50;;
72674;SDS011;60752;53.962;9.614;2022-08-11T10:17:22;4.95;;;1.60;;
72674;SDS011;60752;53.962;9.614;2022-08-11T10:22:23;5.25;;;1.67;;
72674;SDS011;60752;53.962;9.614;2022-08-11T10:27:24;4.80;;;1.40;;
72674;SDS011;60752;53.962;9.614;2022-08-11T10:32:28;4.43;;;1.48;;
72674;SDS011;60752;53.962;9.614;2022-08-11T10:37:29;5.67;;;1.60;;
72674;SDS011;60752;53.962;9.614;2022-08-11T10:42:30;4.37;;;1.30;;
72674;SDS011;60752;53.962;9.614;2022-08-11T10:47:33;9.93;;;1.92;;
72674;SDS011;60752;53.962;9.614;2022-08-11T10:52:34;6.53;;;1.70;;
72674;SDS011;60752;53.962;9.614;2022-08-11T10:57:35;7.10;;;1.50;;
72674;SDS011;60752;53.962;9.614;2022-08-11T11:02:37;3.65;;;1.33;;
72674;SDS011;60752;53.962;9.614;2022-08-11T11:07:47;3.47;;;1.40;;
72674;SDS011;60752;53.962;9.614;2022-08-11T11:12:53;5.47;;;1.40;;
72674;SDS011;60752;53.962;9.614;2022-08-11T11:17:58;4.53;;;1.52;;
72674;SDS011;60752;53.962;9.614;2022-08-11T11:23:03;5.87;;;1.50;;
72674;SDS011;60752;53.962;9.614;2022-08-11T11:33:39;4.32;;;1.27;;
72674;SDS011;60752;53.962;9.614;2022-08-11T11:38:52;7.23;;;1.40;;
72674;SDS011;60752;53.962;9.614;2022-08-11T11:43:54;3.33;;;1.30;;
72674;SDS011;60752;53.962;9.614;2022-08-11T11:48:57;3.38;;;1.20;;
72674;SDS011;60752;53.962;9.614;2022-08-11T11:53:59;3.20;;;1.13;;
72674;SDS011;60752;53.962;9.614;2022-08-11T11:59:00;2.80;;;1.20;;
72674;SDS011;60752;53.962;9.614;2022-08-11T12:04:03;4.07;;;1.23;;
72674;SDS011;60752;53.962;9.614;2022-08-11T12:09:05;5.93;;;1.30;;
72674;SDS011;60752;53.962;9.614;2022-08-11T12:14:06;4.83;;;1.27;;
72674;SDS011;60752;53.962;9.614;2022-08-11T12:19:10;2.92;;;0.98;;
72674;SDS011;60752;53.962;9.614;2022-08-11T12:24:12;4.00;;;1.15;;
72674;SDS011;60752;53.962;9.614;2022-08-11T12:29:12;3.40;;;1.17;;
72674;SDS011;60752;53.962;9.614;2022-08-11T12:34:16;4.57;;;1.40;;
72674;SDS011;60752;53.962;9.614;2022-08-11T12:39:18;5.37;;;1.40;;
72674;SDS011;60752;53.962;9.614;2022-08-11T12:44:21;4.03;;;1.20;;
72674;SDS011;60752;53.962;9.614;2022-08-11T12:49:25;3.75;;;1.40;;
72674;SDS011;60752;53.962;9.614;2022-08-11T12:54:30;6.03;;;1.40;;
72674;SDS011;60752;53.962;9.614;2022-08-11T12:59:34;4.20;;;1.42;;
72674;SDS011;60752;53.962;9.614;2022-08-11T13:04:37;4.97;;;1.40;;
72674;SDS011;60752;53.962;9.614;2022-08-11T13:09:39;6.63;;;1.40;;
72674;SDS011;60752;53.962;9.614;2022-08-11T13:14:40;6.50;;;1.45;;
72674;SDS011;60752;53.962;9.614;2022-08-11T13:19:43;3.45;;;1.10;;
72674;SDS011;60752;53.962;9.614;2022-08-11T13:24:46;12.13;;;1.57;;
72674;SDS011;60752;53.962;9.614;2022-08-11T13:29:48;4.80;;;1.42;;
72674;SDS011;60752;53.962;9.614;2022-08-11T13:34:50;6.13;;;1.48;;
72674;SDS011;60752;53.962;9.614;2022-08-11T13:39:51;6.53;;;1.50;;
72674;SDS011;60752;53.962;9.614;2022-08-11T13:44:52;4.55;;;1.40;;
72674;SDS011;60752;53.962;9.614;2022-08-11T13:49:54;3.70;;;1.60;;
72674;SDS011;60752;53.962;9.614;2022-08-11T13:54:55;3.17;;;1.20;;
72674;SDS011;60752;53.962;9.614;2022-08-11T13:59:56;3.97;;;1.58;;
72674;SDS011;60752;53.962;9.614;2022-08-11T14:05:00;3.50;;;1.50;;
72674;SDS011;60752;53.962;9.614;2022-08-11T14:10:04;5.25;;;1.60;;
72674;SDS011;60752;53.962;9.614;2022-08-11T14:15:08;4.10;;;1.73;;
72674;SDS011;60752;53.962;9.614;2022-08-11T14:20:15;5.88;;;1.30;;
72674;SDS011;60752;53.962;9.614;2022-08-11T14:25:17;6.90;;;1.77;;
72674;SDS011;60752;53.962;9.614;2022-08-11T14:30:17;4.57;;;1.47;;
72674;SDS011;60752;53.962;9.614;2022-08-11T14:35:19;4.20;;;1.40;;
72674;SDS011;60752;53.962;9.614;2022-08-11T14:40:20;5.18;;;1.55;;
72674;SDS011;60752;53.962;9.614;2022-08-11T14:45:20;4.33;;;1.60;;
72674;SDS011;60752;53.962;9.614;2022-08-11T14:50:23;4.90;;;1.40;;
72674;SDS011;60752;53.962;9.614;2022-08-11T14:55:26;4.40;;;1.60;;
72674;SDS011;60752;53.962;9.614;2022-08-11T15:00:29;4.90;;;1.77;;
72674;SDS011;60752;53.962;9.614;2022-08-11T15:05:32;4.40;;;1.63;;
72674;SDS011;60752;53.962;9.614;2022-08-11T15:10:33;5.15;;;1.50;;
72674;SDS011;60752;53.962;9.614;2022-08-11T15:15:34;4.80;;;1.88;;
72674;SDS011;60752;53.962;9.614;2022-08-11T15:20:37;3.57;;;1.50;;
72674;SDS011;60752;53.962;9.614;2022-08-11T15:25:38;8.98;;;2.28;;
72674;SDS011;60752;53.962;9.614;2022-08-11T15:30:41;7.13;;;1.45;;
72674;SDS011;60752;53.962;9.614;2022-08-11T15:35:44;5.03;;;1.53;;
72674;SDS011;60752;53.962;9.614;2022-08-11T15:40:45;4.97;;;1.83;;
72674;SDS011;60752;53.962;9.614;2022-08-11T15:45:47;6.25;;;1.40;;
72674;SDS011;60752;53.962;9.614;2022-08-11T15:50:55;5.03;;;1.90;;
72674;SDS011;60752;53.962;9.614;2022-08-11T15:55:57;6.87;;;1.57;;
72674;SDS011;60752;53.962;9.614;2022-08-11T16:00:59;6.28;;;1.80;;
72674;SDS011;60752;53.962;9.614;2022-08-11T16:06:03;6.43;;;2.17;;
72674;SDS011;60752;53.962;9.614;2022-08-11T16:11:04;5.40;;;1.60;;
72674;SDS011;60752;53.962;9.614;2022-08-11T16:16:07;4.43;;;1.90;;
72674;SDS011;60752;53.962;9.614;2022-08-11T16:21:12;4.45;;;1.55;;
72674;SDS011;60752;53.962;9.614;2022-08-11T16:26:15;3.70;;;1.60;;
72674;SDS011;60752;53.962;9.614;2022-08-11T16:31:19;8.77;;;1.73;;
72674;SDS011;60752;53.962;9.614;2022-08-11T16:36:22;3.40;;;1.30;;
72674;SDS011;60752;53.962;9.614;2022-08-11T16:41:26;7.23;;;1.50;;
72674;SDS011;60752;53.962;9.614;2022-08-11T16:46:30;3.13;;;1.30;;
72674;SDS011;60752;53.962;9.614;2022-08-11T16:51:33;3.17;;;1.13;;
72674;SDS011;60752;53.962;9.614;2022-08-11T16:56:35;3.53;;;1.50;;
72674;SDS011;60752;53.962;9.614;2022-08-11T17:01:40;4.37;;;1.33;;
72674;SDS011;60752;53.962;9.614;2022-08-11T17:06:45;3.20;;;1.13;;
72674;SDS011;60752;53.962;9.614;2022-08-11T17:11:49;6.70;;;1.10;;
72674;SDS011;60752;53.962;9.614;2022-08-11T17:16:53;3.70;;;1.50;;
72674;SDS011;60752;53.962;9.614;2022-08-11T17:21:57;5.00;;;1.15;;
72674;SDS011;60752;53.962;9.614;2022-08-11T17:26:59;3.50;;;0.98;;
72674;SDS011;60752;53.962;9.614;2022-08-11T17:32:01;3.30;;;0.90;;
72674;SDS011;60752;53.962;9.614;2022-08-11T17:37:04;4.93;;;1.17;;
72674;SDS011;60752;53.962;9.614;2022-08-11T17:42:05;9.70;;;1.80;;
72674;SDS011;60752;53.962;9.614;2022-08-11T17:47:07;4.40;;;1.60;;
72674;SDS011;60752;53.962;9.614;2022-08-11T17:52:10;4.30;;;1.37;;
72674;SDS011;60752;53.962;9.614;2022-08-11T17:57:12;5.00;;;1.17;;
72674;SDS011;60752;53.962;9.614;2022-08-11T18:02:13;5.90;;;1.17;;
72674;SDS011;60752;53.962;9.614;2022-08-11T18:07:19;3.13;;;1.10;;
72674;SDS011;60752;53.962;9.614;2022-08-11T18:12:21;3.67;;;1.10;;
72674;SDS011;60752;53.962;9.614;2022-08-11T18:17:22;5.37;;;1.20;;
72674;SDS011;60752;53.962;9.614;2022-08-11T18:22:25;4.27;;;1.30;;
72674;SDS011;60752;53.962;9.614;2022-08-11T18:27:29;4.60;;;1.20;;
72674;SDS011;60752;53.962;9.614;2022-08-11T18:32:32;4.53;;;1.40;;
72674;SDS011;60752;53.962;9.614;2022-08-11T18:37:35;7.43;;;1.10;;
72674;SDS011;60752;53.962;9.614;2022-08-11T18:42:38;6.47;;;1.00;;
72674;SDS011;60752;53.962;9.614;2022-08-11T18:47:41;4.88;;;1.20;;
72674;SDS011;60752;53.962;9.614;2022-08-11T18:52:44;4.00;;;1.50;;
72674;SDS011;60752;53.962;9.614;2022-08-11T18:57:49;8.47;;;1.70;;
72674;SDS011;60752;53.962;9.614;2022-08-11T19:02:53;4.28;;;1.23;;
72674;SDS011;60752;53.962;9.614;2022-08-11T19:07:56;6.15;;;1.20;;
72674;SDS011;60752;53.962;9.614;2022-08-11T19:12:58;8.07;;;1.20;;
72674;SDS011;60752;53.962;9.614;2022-08-11T19:18:00;4.50;;;1.08;;
72674;SDS011;60752;53.962;9.614;2022-08-11T19:23:04;5.55;;;1.20;;
72674;SDS011;60752;53.962;9.614;2022-08-11T19:28:06;4.10;;;1.30;;
72674;SDS011;60752;53.962;9.614;2022-08-11T19:33:07;4.80;;;1.40;;
72674;SDS011;60752;53.962;9.614;2022-08-11T19:38:10;4.65;;;1.30;;
72674;SDS011;60752;53.962;9.614;2022-08-11T19:43:11;7.77;;;1.63;;
72674;SDS011;60752;53.962;9.614;2022-08-11T19:48:12;12.80;;;6.60;;
72674;SDS011;60752;53.962;9.614;2022-08-11T19:53:14;5.70;;;2.20;;
72674;SDS011;60752;53.962;9.614;2022-08-11T19:58:15;3.97;;;1.70;;
72674;SDS011;60752;53.962;9.614;2022-08-11T20:03:16;3.93;;;1.30;;
72674;SDS011;60752;53.962;9.614;2022-08-11T20:08:18;4.85;;;1.55;;
72674;SDS011;60752;53.962;9.614;2022-08-11T20:13:22;3.90;;;1.10;;
72674;SDS011;60752;53.962;9.614;2022-08-11T20:18:26;5.38;;;1.20;;
72674;SDS011;60752;53.962;9.614;2022-08-11T20:23:28;4.03;;;1.20;;
72674;SDS011;60752;53.962;9.614;2022-08-11T20:28:29;4.43;;;1.27;;
72674;SDS011;60752;53.962;9.614;2022-08-11T20:33:31;5.67;;;1.17;;
72674;SDS011;60752;53.962;9.614;2022-08-11T20:38:33;3.63;;;1.23;;
72674;SDS011;60752;53.962;9.614;2022-08-11T20:43:35;3.72;;;1.02;;
72674;SDS011;60752;53.962;9.614;2022-08-11T20:48:38;4.50;;;1.30;;
72674;SDS011;60752;53.962;9.614;2022-08-11T20:53:41;3.47;;;1.20;;
72674;SDS011;60752;53.962;9.614;2022-08-11T20:58:44;5.70;;;1.40;;
72674;SDS011;60752;53.962;9.614;2022-08-11T21:03:46;6.40;;;1.23;;
72674;SDS011;60752;53.962;9.614;2022-08-11T21:08:48;4.07;;;1.27;;
72674;SDS011;60752;53.962;9.614;2022-08-11T21:13:50;10.57;;;1.40;;
72674;SDS011;60752;53.962;9.614;2022-08-11T21:18:53;7.38;;;1.42;;
72674;SDS011;60752;53.962;9.614;2022-08-11T21:24:00;4.93;;;1.30;;
72674;SDS011;60752;53.962;9.614;2022-08-11T21:29:02;3.17;;;1.23;;
72674;SDS011;60752;53.962;9.614;2022-08-11T21:34:05;3.83;;;1.10;;
72674;SDS011;60752;53.962;9.614;2022-08-11T21:39:12;3.58;;;1.40;;
72674;SDS011;60752;53.962;9.614;2022-08-11T21:44:18;3.60;;;1.30;;
72674;SDS011;60752;53.962;9.614;2022-08-11T21:49:20;4.32;;;1.75;;
72674;SDS011;60752;53.962;9.614;2022-08-11T21:54:23;5.85;;;1.60;;
72674;SDS011;60752;53.962;9.614;2022-08-11T21:59:26;4.83;;;1.27;;
72674;SDS011;60752;53.962;9.614;2022-08-11T22:04:35;6.23;;;1.60;;
72674;SDS011;60752;53.962;9.614;2022-08-11T22:09:37;4.95;;;1.45;;
72674;SDS011;60752;53.962;9.614;2022-08-11T22:14:38;4.28;;;1.30;;
72674;SDS011;60752;53.962;9.614;2022-08-11T22:19:38;9.07;;;1.50;;
72674;SDS011;60752;53.962;9.614;2022-08-11T22:24:41;9.47;;;1.47;;
72674;SDS011;60752;53.962;9.614;2022-08-11T22:29:43;7.70;;;1.67;;
72674;SDS011;60752;53.962;9.614;2022-08-11T22:34:43;4.70;;;1.70;;
72674;SDS011;60752;53.962;9.614;2022-08-11T22:39:46;6.18;;;1.73;;
72674;SDS011;60752;53.962;9.614;2022-08-11T22:44:47;4.53;;;1.53;;
72674;SDS011;60752;53.962;9.614;2022-08-11T22:49:50;3.87;;;1.50;;
72674;SDS011;60752;53.962;9.614;2022-08-11T22:54:56;6.22;;;1.60;;
72674;SDS011;60752;53.962;9.614;2022-08-11T22:59:58;4.18;;;1.23;;
72674;SDS011;60752;53.962;9.614;2022-08-11T23:05:00;4.23;;;1.60;;
72674;SDS011;60752;53.962;9.614;2022-08-11T23:10:03;4.03;;;1.40;;
72674;SDS011;60752;53.962;9.614;2022-08-11T23:15:04;7.10;;;1.50;;
72674;SDS011;60752;53.962;9.614;2022-08-11T23:20:06;5.55;;;1.40;;
72674;SDS011;60752;53.962;9.614;2022-08-11T23:25:09;4.83;;;1.27;;
72674;SDS011;60752;53.962;9.614;2022-08-11T23:30:10;7.97;;;1.65;;
72674;SDS011;60752;53.962;9.614;2022-08-11T23:35:11;6.15;;;1.60;;
72674;SDS011;60752;53.962;9.614;2022-08-11T23:40:14;4.57;;;1.33;;
72674;SDS011;60752;53.962;9.614;2022-08-11T23:45:14;3.92;;;1.65;;
72674;SDS011;60752;53.962;9.614;2022-08-11T23:50:15;3.95;;;1.25;;
72674;SDS011;60752;53.962;9.614;2022-08-11T23:55:17;3.80;;;1.57;;
